Latah, Washington
Current Conditions -  °F | °C
As of 8:26 PM on Wednesday 28 Jan 2015 (Local Time) from KSFF Reporting Station
Moderate Fog Moderate Fog  
Wind Chill: 30°   Ceiling: 600
Heat Index: 30°   Visibility: 0.5mi
Dew Point: 28°   Wind: 0mph
Humidity: 92%   Direction: NA
Pressure: 30.44"   Gusts: NA
Location:  47.28°N, 117.16°W
Report Text: KSFF 290426Z AUTO 00000KT 1/2SM FZFG VV006 M01/M02 A3044 RMK AO2 I1001 T10111022
Loading
Personal Weather Stations






























Interactive Weather Map New forecast layout! Learn more

10-Day Weather Forecast

Advertisements
Track Severe Weather on mobile